Time;durP1;ratioP1;P1;durP2;ratioP2;P2;SDS_P1;SDS_P2;PMS_P1;PMS_P2;Temp;Humidity;BMP_temperature;BMP_pressure;BME280_temperature;BME280_humidity;BME280_pressure;Samples;Min_cycle;Max_cycle;Signal;HPM_P1;HPM_P2
2023/06/06 00:00:09;;;;;;;10.03;9.33;;;;;;;17.14;64.44;93156.13;5016548;28;20282;-76
2023/06/06 00:02:40;;;;;;;9.47;8.97;;;;;;;17.19;63.80;93142.03;5022342;28;20400;-76
2023/06/06 00:05:07;;;;;;;9.17;8.43;;;;;;;17.24;63.97;93149.81;5014118;28;20227;-76
2023/06/06 00:07:35;;;;;;;9.50;8.83;;;;;;;17.17;63.71;93129.13;5013301;28;20179;-76
2023/06/06 00:10:01;;;;;;;10.47;9.60;;;;;;;17.23;64.11;93140.34;5013632;28;20234;-77
2023/06/06 00:12:28;;;;;;;10.10;9.40;;;;;;;17.12;65.61;93134.56;5015430;28;20210;-77
2023/06/06 00:14:59;;;;;;;10.10;9.40;;;;;;;17.16;64.61;93137.38;5017296;28;20251;-76
2023/06/06 00:17:25;;;;;;;9.90;9.30;;;;;;;17.19;64.43;93140.19;5014080;28;20194;-76
2023/06/06 00:19:52;;;;;;;9.33;8.73;;;;;;;17.17;64.35;93141.53;5022752;28;20226;-76
2023/06/06 00:22:22;;;;;;;10.13;9.53;;;;;;;17.01;64.77;93114.78;5013441;28;20188;-76
2023/06/06 00:24:57;;;;;;;10.43;9.63;;;;;;;17.14;64.81;93142.94;5014191;28;20230;-77
2023/06/06 00:27:22;;;;;;;9.07;8.57;;;;;;;16.96;65.31;93125.50;5013311;28;20203;-76
2023/06/06 00:29:48;;;;;;;9.83;9.03;;;;;;;16.83;66.50;93105.28;5023282;28;20242;-76
2023/06/06 00:32:13;;;;;;;9.67;9.13;;;;;;;16.83;68.58;93134.28;5013605;28;20202;-76
2023/06/06 00:34:39;;;;;;;10.50;9.90;;;;;;;16.65;69.95;93127.38;5011915;28;20266;-76
2023/06/06 00:37:04;;;;;;;10.57;9.77;;;;;;;16.37;70.68;93120.69;5013198;28;20269;-77
2023/06/06 00:39:30;;;;;;;9.80;9.17;;;;;;;16.61;68.69;93133.53;5012454;28;20238;-76
2023/06/06 00:41:55;;;;;;;9.80;9.10;;;;;;;16.41;71.19;93126.88;5002729;28;20195;-77
2023/06/06 00:44:21;;;;;;;9.77;9.07;;;;;;;16.23;72.00;93109.44;5016365;28;20262;-77
2023/06/06 00:46:47;;;;;;;10.00;9.27;;;;;;;16.15;72.85;93125.94;5012908;28;20210;-76
2023/06/06 00:49:14;;;;;;;10.60;9.80;;;;;;;16.17;73.73;93125.66;5015693;28;20187;-77
2023/06/06 00:51:40;;;;;;;10.80;10.13;;;;;;;15.86;75.84;93115.03;5012667;28;20187;-76
2023/06/06 00:54:07;;;;;;;11.57;10.30;;;;;;;16.18;72.78;93117.44;5012219;28;20250;-76
2023/06/06 00:56:36;;;;;;;10.53;9.93;;;;;;;15.89;74.32;93101.28;5012267;28;20175;-77
2023/06/06 00:59:03;;;;;;;10.23;9.60;;;;;;;16.06;74.30;93114.56;5022005;28;20207;-76
2023/06/06 01:01:33;;;;;;;10.47;9.67;;;;;;;15.71;75.72;93113.53;5032282;28;20189;-77
2023/06/06 01:04:01;;;;;;;10.60;10.00;;;;;;;15.61;76.92;93139.28;5013147;28;20241;-76
2023/06/06 01:06:26;;;;;;;10.47;9.67;;;;;;;15.57;74.57;93114.63;5012801;28;20184;-76
2023/06/06 01:08:52;;;;;;;10.10;9.50;;;;;;;15.58;72.65;93124.84;5012413;28;20247;-76
2023/06/06 01:11:29;;;;;;;9.43;8.73;;;;;;;15.87;73.44;93138.44;5012771;28;20256;-76
2023/06/06 01:14:09;;;;;;;9.87;9.27;;;;;;;15.66;71.10;93136.53;5004939;28;20179;-77
2023/06/06 01:16:36;;;;;;;9.97;9.07;;;;;;;15.31;74.03;93118.84;5009340;28;20186;-76
2023/06/06 01:19:04;;;;;;;10.40;9.30;;;;;;;15.48;74.88;93132.97;5008783;28;20211;-77
2023/06/06 01:21:41;;;;;;;9.33;8.73;;;;;;;15.48;73.41;93140.88;5013484;28;20206;-76
2023/06/06 01:24:08;;;;;;;9.83;9.30;;;;;;;15.57;73.83;93140.94;5026522;28;20191;-76
2023/06/06 01:26:33;;;;;;;10.07;9.47;;;;;;;15.63;71.84;93140.53;5026899;28;20198;-77
2023/06/06 01:28:59;;;;;;;10.20;9.50;;;;;;;15.62;68.64;93119.78;5016925;28;20310;-76
2023/06/06 01:31:32;;;;;;;9.63;9.13;;;;;;;15.69;68.27;93146.47;5011212;28;20336;-76
2023/06/06 01:34:19;;;;;;;9.30;8.60;;;;;;;15.62;67.32;93132.94;5019126;28;20202;-76
2023/06/06 01:36:58;;;;;;;10.23;9.57;;;;;;;15.64;67.62;93133.44;5020928;28;20183;-77
2023/06/06 01:39:24;;;;;;;10.07;8.97;;;;;;;15.75;68.28;93137.41;5027698;28;20247;-76
2023/06/06 01:41:55;;;;;;;10.07;8.97;;;;;;;15.75;67.81;93140.03;5029406;28;20190;-73
2023/06/06 01:44:22;;;;;;;9.77;9.10;;;;;;;15.71;68.98;93144.31;5025574;28;20226;-74
2023/06/06 01:46:48;;;;;;;9.13;8.43;;;;;;;15.61;69.81;93132.16;5017541;28;20188;-75
2023/06/06 01:49:15;;;;;;;10.07;9.37;;;;;;;15.76;69.78;93146.84;5012535;28;20190;-74
2023/06/06 01:51:41;;;;;;;9.10;8.60;;;;;;;15.67;70.39;93127.56;5010657;28;20195;-75
2023/06/06 01:54:06;;;;;;;9.23;8.53;;;;;;;15.87;68.20;93146.34;5011920;28;20258;-74
2023/06/06 01:56:33;;;;;;;9.27;8.70;;;;;;;15.83;70.14;93144.56;5020162;28;20187;-72
2023/06/06 01:59:00;;;;;;;10.30;9.53;;;;;;;15.70;69.05;93119.09;5008127;28;20223;-74
2023/06/06 02:01:26;;;;;;;10.00;9.33;;;;;;;15.95;67.79;93150.13;5004940;28;20203;-74
2023/06/06 02:03:51;;;;;;;9.57;8.97;;;;;;;15.86;68.71;93139.50;5012608;28;20179;-75
2023/06/06 02:06:17;;;;;;;9.77;9.27;;;;;;;15.59;68.51;93134.31;4993843;28;20239;-75
2023/06/06 02:08:43;;;;;;;9.50;8.83;;;;;;;15.71;68.55;93139.06;5011659;28;20183;-75
2023/06/06 02:11:08;;;;;;;8.87;8.37;;;;;;;15.56;69.38;93136.75;5015086;28;20258;-74
2023/06/06 02:13:33;;;;;;;8.90;8.30;;;;;;;15.61;69.00;93149.81;4996849;28;20230;-74
2023/06/06 02:15:59;;;;;;;9.13;8.63;;;;;;;15.74;68.87;93149.00;4994656;28;20262;-74
2023/06/06 02:18:24;;;;;;;9.67;9.10;;;;;;;15.60;69.66;93137.72;5013164;28;20224;-74
2023/06/06 02:20:50;;;;;;;9.80;9.20;;;;;;;15.60;70.40;93156.94;5012024;28;20215;-74
2023/06/06 02:23:17;;;;;;;10.03;9.43;;;;;;;15.51;71.24;93163.97;5013990;28;20187;-74
2023/06/06 02:25:43;;;;;;;9.13;8.63;;;;;;;15.00;72.22;93154.69;5015712;28;20298;-75
2023/06/06 02:28:08;;;;;;;9.53;8.93;;;;;;;15.05;73.51;93173.03;5012945;28;20224;-74
2023/06/06 02:30:34;;;;;;;10.67;9.17;;;;;;;15.31;73.07;93160.94;5003313;28;20251;-75
2023/06/06 02:32:59;;;;;;;10.47;9.80;;;;;;;15.35;73.30;93132.94;5012340;28;20190;-74
2023/06/06 02:35:25;;;;;;;9.80;9.07;;;;;;;15.53;74.88;93172.31;5004191;28;20223;-75
2023/06/06 02:37:53;;;;;;;10.73;9.90;;;;;;;15.48;77.26;93171.66;5012604;28;20258;-74
2023/06/06 02:40:20;;;;;;;9.47;8.87;;;;;;;15.36;78.59;93155.56;4996421;28;20218;-75
2023/06/06 02:42:45;;;;;;;11.27;10.47;;;;;;;15.28;81.92;93180.72;5011696;28;20179;-75
2023/06/06 02:45:11;;;;;;;12.07;10.83;;;;;;;15.31;83.38;93171.44;5012390;28;20227;-74
2023/06/06 02:47:37;;;;;;;11.53;10.83;;;;;;;15.22;83.79;93162.69;5014474;28;20738;-74
2023/06/06 02:50:04;;;;;;;11.17;10.37;;;;;;;15.29;84.15;93165.69;5010260;28;20238;-74
2023/06/06 02:52:31;;;;;;;11.17;10.23;;;;;;;15.15;85.09;93178.06;5019032;28;20295;-74
2023/06/06 02:54:57;;;;;;;11.60;10.70;;;;;;;15.12;85.63;93173.41;5010852;28;20223;-75
2023/06/06 02:57:23;;;;;;;11.03;10.33;;;;;;;15.20;85.53;93175.34;5010889;28;20266;-75
2023/06/06 02:59:48;;;;;;;11.03;10.30;;;;;;;15.16;85.40;93150.72;5010114;28;20262;-74
2023/06/06 03:02:18;;;;;;;11.30;10.40;;;;;;;15.38;85.39;93177.13;5010314;28;20199;-77
2023/06/06 03:04:44;;;;;;;11.90;10.83;;;;;;;15.57;84.65;93175.16;5009961;28;20227;-76
2023/06/06 03:07:10;;;;;;;13.43;10.50;;;;;;;15.23;84.00;93128.19;5018254;28;20255;-77
2023/06/06 03:09:36;;;;;;;11.00;10.23;;;;;;;15.52;83.72;93168.16;5013426;28;20218;-76
2023/06/06 03:12:03;;;;;;;11.43;10.57;;;;;;;15.45;84.42;93182.78;5012072;28;20235;-76
2023/06/06 03:14:28;;;;;;;11.67;10.73;;;;;;;15.65;83.97;93188.41;5009982;28;20307;-75
2023/06/06 03:16:56;;;;;;;11.30;10.30;;;;;;;15.90;83.90;93184.47;5010168;28;20184;-76
2023/06/06 03:19:25;;;;;;;12.07;11.07;;;;;;;16.13;82.96;93193.16;5002466;28;20271;-77
2023/06/06 03:21:51;;;;;;;12.60;11.50;;;;;;;16.23;82.10;93180.56;5009573;28;20184;-77
2023/06/06 03:24:17;;;;;;;12.20;11.30;;;;;;;16.41;82.09;93198.06;5008018;28;20218;-77
2023/06/06 03:26:46;;;;;;;12.10;11.00;;;;;;;16.58;82.20;93195.56;5009956;28;20261;-76
2023/06/06 03:29:12;;;;;;;12.07;11.17;;;;;;;17.11;80.27;93198.19;5009445;28;20705;-76
2023/06/06 03:31:41;;;;;;;11.40;10.60;;;;;;;17.05;80.12;93197.53;4993081;28;20194;-76
2023/06/06 03:34:06;;;;;;;11.57;10.67;;;;;;;16.85;80.84;93198.06;5018401;28;20179;-75
2023/06/06 03:36:33;;;;;;;10.83;9.93;;;;;;;16.80;81.84;93203.47;5010187;28;20219;-76
2023/06/06 03:39:00;;;;;;;11.60;10.67;;;;;;;16.79;81.21;93174.75;5014659;28;20206;-77
2023/06/06 03:41:25;;;;;;;11.30;10.57;;;;;;;17.24;80.25;93177.00;5012637;28;20218;-71
2023/06/06 03:43:51;;;;;;;10.50;9.87;;;;;;;17.44;78.13;93189.66;5010240;28;20171;-68
2023/06/06 03:46:16;;;;;;;9.77;9.17;;;;;;;17.52;77.59;93191.56;5009622;28;20271;-67
2023/06/06 03:48:41;;;;;;;11.30;10.60;;;;;;;17.46;76.58;93184.84;5013675;28;20195;-73
2023/06/06 03:51:07;;;;;;;10.10;9.30;;;;;;;17.53;73.34;93177.25;5010981;28;20223;-73
2023/06/06 03:53:32;;;;;;;10.53;9.87;;;;;;;17.76;72.92;93193.00;5013775;28;20190;-71
2023/06/06 03:55:58;;;;;;;10.50;9.63;;;;;;;17.97;70.34;93202.69;5009603;28;20246;-70
2023/06/06 03:58:25;;;;;;;12.93;9.80;;;;;;;18.30;69.05;93203.03;5010035;28;20203;-70
2023/06/06 04:00:51;;;;;;;10.73;9.87;;;;;;;18.57;66.14;93208.78;5003523;28;20236;-70
2023/06/06 04:03:17;;;;;;;10.60;9.77;;;;;;;18.63;65.25;93204.13;5009907;28;20742;-69
2023/06/06 04:05:44;;;;;;;9.90;9.30;;;;;;;18.41;64.32;93206.94;5010625;28;20225;-68
2023/06/06 04:08:10;;;;;;;9.47;8.87;;;;;;;18.37;62.09;93171.59;5011691;28;20247;-70
2023/06/06 04:10:35;;;;;;;9.97;9.37;;;;;;;18.46;63.51;93196.22;5010321;28;20250;-68
2023/06/06 04:13:02;;;;;;;9.10;8.60;;;;;;;18.60;61.46;93210.06;5011551;28;20214;-71
2023/06/06 04:15:27;;;;;;;9.43;8.80;;;;;;;18.01;61.81;93202.84;5009254;28;20287;-73
2023/06/06 04:17:53;;;;;;;9.83;8.93;;;;;;;17.97;65.19;93205.31;5009417;28;20223;-70
2023/06/06 04:20:18;;;;;;;9.20;8.70;;;;;;;17.54;62.00;93207.84;5009931;28;20876;-70
2023/06/06 04:22:44;;;;;;;9.63;9.03;;;;;;;18.28;63.02;93210.47;5001137;28;20208;-70
2023/06/06 04:25:09;;;;;;;9.80;9.07;;;;;;;18.57;60.07;93203.50;5018736;28;20211;-73
2023/06/06 04:27:37;;;;;;;9.57;9.07;;;;;;;19.46;58.75;93222.00;4994140;28;20180;-72
2023/06/06 04:30:06;;;;;;;9.23;8.67;;;;;;;19.66;56.58;93212.59;5014797;28;20254;-71
2023/06/06 04:32:32;;;;;;;10.63;10.03;;;;;;;19.54;57.61;93217.75;4997672;28;20207;-72
2023/06/06 04:34:58;;;;;;;8.70;8.10;;;;;;;19.18;58.85;93208.38;4993766;28;20224;-72
2023/06/06 04:37:24;;;;;;;9.87;8.97;;;;;;;18.61;60.21;93207.09;5001703;28;20273;-73
2023/06/06 04:39:53;;;;;;;9.40;8.80;;;;;;;19.80;58.20;93208.59;5011368;28;20231;-72
2023/06/06 04:42:20;;;;;;;9.63;8.93;;;;;;;19.90;57.45;93212.75;5011114;28;20248;-72
2023/06/06 04:44:46;;;;;;;9.50;8.77;;;;;;;19.88;56.45;93205.13;5010785;28;20231;-72
2023/06/06 04:47:12;;;;;;;9.70;9.10;;;;;;;20.24;54.86;93215.22;5011505;28;20181;-72
2023/06/06 04:49:43;;;;;;;9.20;8.63;;;;;;;19.88;55.36;93214.94;5009113;28;20231;-72
2023/06/06 04:52:14;;;;;;;9.57;8.70;;;;;;;19.51;55.71;93213.88;5011043;28;20205;-71
2023/06/06 04:54:40;;;;;;;9.67;8.97;;;;;;;19.33;57.09;93224.88;5009875;28;20237;-72
2023/06/06 04:57:07;;;;;;;9.13;8.43;;;;;;;19.50;56.92;93208.91;5011186;28;20195;-72
2023/06/06 04:59:33;;;;;;;9.10;8.60;;;;;;;19.71;55.27;93197.28;5010945;28;20231;-72
2023/06/06 05:02:01;;;;;;;9.00;8.50;;;;;;;19.76;55.50;93209.56;5011348;28;20203;-72
2023/06/06 05:04:29;;;;;;;9.07;8.67;;;;;;;19.57;57.55;93204.66;5011280;28;20232;-72
2023/06/06 05:06:58;;;;;;;9.27;8.77;;;;;;;18.56;59.92;93195.88;5011509;28;20203;-73
2023/06/06 05:09:24;;;;;;;8.90;8.30;;;;;;;19.81;52.89;93210.16;5010488;28;20239;-73
2023/06/06 05:11:52;;;;;;;8.47;8.07;;;;;;;19.91;54.72;93209.00;5004219;28;20213;-71
2023/06/06 05:14:23;;;;;;;10.20;9.27;;;;;;;20.28;52.70;93214.25;5011360;28;20248;-71
2023/06/06 05:16:51;;;;;;;9.63;8.83;;;;;;;20.01;54.46;93221.91;4994254;28;20213;-70
2023/06/06 05:19:16;;;;;;;10.53;9.83;;;;;;;20.33;52.83;93210.63;5007971;28;20240;-71
2023/06/06 05:21:42;;;;;;;8.50;8.10;;;;;;;20.28;52.09;93219.56;4999322;28;20193;-69
2023/06/06 05:24:07;;;;;;;8.40;7.73;;;;;;;20.50;52.78;93210.50;5015134;28;20219;-70
2023/06/06 05:26:32;;;;;;;9.00;8.40;;;;;;;20.58;51.13;93207.78;5006702;28;20235;-72
2023/06/06 05:28:59;;;;;;;8.27;7.67;;;;;;;20.44;49.79;93204.63;5010836;28;20176;-69
2023/06/06 05:31:25;;;;;;;8.57;8.17;;;;;;;20.73;50.84;93213.59;4994434;28;20265;-71
2023/06/06 05:33:51;;;;;;;7.93;7.33;;;;;;;23.00;45.03;93213.97;5009615;28;20186;-70
2023/06/06 05:36:16;;;;;;;9.13;8.55;;;;;;;26.87;36.76;93222.56;5014999;28;20227;-70
2023/06/06 05:38:41;;;;;;;7.90;7.50;;;;;;;29.97;31.78;93235.13;5010437;28;20196;-70
2023/06/06 05:41:07;;;;;;;7.97;7.53;;;;;;;29.92;29.71;93235.50;5011249;28;20972;-70
2023/06/06 05:43:33;;;;;;;7.75;7.25;;;;;;;31.27;27.63;93243.03;5015390;28;20226;-70
2023/06/06 05:46:01;;;;;;;7.95;7.18;;;;;;;32.48;25.41;93250.09;5010318;28;20246;-70
2023/06/06 05:48:27;;;;;;;6.93;6.60;;;;;;;33.91;23.85;93253.16;5010903;28;20497;-71
2023/06/06 05:50:53;;;;;;;6.50;6.20;;;;;;;31.89;25.93;93246.66;5008362;28;20224;-70
2023/06/06 05:53:18;;;;;;;6.82;6.50;;;;;;;33.00;25.34;93248.06;5010690;28;20188;-70
2023/06/06 05:55:44;;;;;;;7.57;7.07;;;;;;;33.94;23.56;93246.16;5011028;28;20243;-71
2023/06/06 05:58:10;;;;;;;10.38;7.28;;;;;;;33.20;24.39;93240.88;5012037;28;20202;-71
2023/06/06 06:00:38;;;;;;;7.30;6.85;;;;;;;31.58;26.44;93231.38;5003246;28;20250;-70
2023/06/06 06:03:04;;;;;;;7.35;6.75;;;;;;;32.19;26.03;93237.94;5008254;28;20205;-71
2023/06/06 06:05:30;;;;;;;7.25;6.78;;;;;;;31.55;25.48;93226.75;5007789;28;20231;-71
2023/06/06 06:08:00;;;;;;;6.93;6.55;;;;;;;30.00;27.32;93220.13;5008827;28;20192;-70
2023/06/06 06:10:36;;;;;;;7.22;6.60;;;;;;;30.95;27.18;93223.50;5009234;28;20228;-72
2023/06/06 06:13:02;;;;;;;7.07;6.70;;;;;;;31.98;26.28;93233.47;4974818;28;20192;-71
2023/06/06 06:15:32;;;;;;;6.70;6.25;;;;;;;31.09;27.81;93229.63;4973722;28;20251;-71
2023/06/06 06:17:58;;;;;;;7.30;6.82;;;;;;;31.52;26.54;93229.47;4976285;28;20184;-71
2023/06/06 06:20:23;;;;;;;6.80;6.50;;;;;;;32.26;24.98;93238.66;4973098;28;20255;-67
2023/06/06 06:22:49;;;;;;;7.47;7.03;;;;;;;33.21;24.26;93235.06;4976823;28;20179;-75
2023/06/06 06:25:16;;;;;;;6.97;6.60;;;;;;;32.86;25.03;93238.09;4974603;28;20264;-70
2023/06/06 06:27:43;;;;;;;7.45;6.85;;;;;;;32.32;25.97;93228.16;4985325;28;20190;-69
2023/06/06 06:30:10;;;;;;;6.80;6.40;;;;;;;33.91;23.63;93244.25;4972965;28;20275;-70
2023/06/06 06:32:37;;;;;;;7.18;6.78;;;;;;;34.69;22.87;93241.09;4976799;28;20180;-71
2023/06/06 06:35:03;;;;;;;6.78;6.18;;;;;;;34.15;22.79;93251.25;4976981;28;20223;-69
2023/06/06 06:37:30;;;;;;;7.55;6.95;;;;;;;32.26;24.92;93225.13;4976325;28;20176;-69
2023/06/06 06:39:56;;;;;;;7.97;7.28;;;;;;;31.43;27.10;93223.75;4973284;28;20250;-69
2023/06/06 06:42:22;;;;;;;7.20;6.55;;;;;;;32.71;24.93;93236.72;4982447;28;20207;-69
2023/06/06 06:44:48;;;;;;;6.80;6.38;;;;;;;31.83;25.79;93231.22;4971760;28;20227;-70
2023/06/06 06:47:13;;;;;;;9.57;7.22;;;;;;;30.04;28.78;93220.91;4981029;28;20188;-71
2023/06/06 06:49:40;;;;;;;7.50;6.80;;;;;;;27.94;32.20;93216.84;4980479;28;21099;-70
2023/06/06 06:52:07;;;;;;;7.82;7.32;;;;;;;25.90;35.81;93202.78;4974119;28;20189;-70
2023/06/06 06:54:35;;;;;;;7.90;7.40;;;;;;;24.86;37.68;93195.16;4971705;28;20225;-71
2023/06/06 06:57:01;;;;;;;8.50;7.57;;;;;;;23.62;41.32;93198.09;4971863;28;20230;-71
2023/06/06 06:59:27;;;;;;;8.10;7.50;;;;;;;24.05;41.87;93200.66;4978231;28;20239;-71
2023/06/06 07:01:53;;;;;;;8.57;8.02;;;;;;;23.70;39.99;93195.22;4974198;28;20188;-71
2023/06/06 07:04:19;;;;;;;8.80;8.10;;;;;;;22.89;42.46;93184.41;4971249;28;20232;-70
2023/06/06 07:06:45;;;;;;;9.73;7.75;;;;;;;23.08;44.77;93192.50;4971717;28;20262;-70
2023/06/06 07:09:12;;;;;;;7.88;7.28;;;;;;;23.31;46.61;93193.53;4971611;28;20252;-71
2023/06/06 07:11:37;;;;;;;9.13;8.25;;;;;;;23.90;43.34;93197.97;4987540;28;20236;-71
2023/06/06 07:14:03;;;;;;;8.20;7.57;;;;;;;23.49;43.89;93200.06;5010472;28;20193;-70
2023/06/06 07:16:28;;;;;;;9.10;8.43;;;;;;;22.89;46.56;93197.72;5022995;28;20178;-71
2023/06/06 07:18:54;;;;;;;8.57;8.07;;;;;;;23.36;43.38;93201.25;5010280;28;20214;-73
2023/06/06 07:21:22;;;;;;;8.73;8.13;;;;;;;23.19;43.46;93188.22;5010392;28;21211;-73
2023/06/06 07:23:48;;;;;;;8.77;8.13;;;;;;;23.19;43.00;93203.44;5008454;28;20197;-72
2023/06/06 07:26:16;;;;;;;9.23;8.43;;;;;;;23.18;45.26;93200.00;5006714;28;20299;-73
2023/06/06 07:28:43;;;;;;;9.10;8.30;;;;;;;22.90;44.35;93188.59;4983612;28;20198;-73
2023/06/06 07:31:08;;;;;;;8.45;7.82;;;;;;;23.27;42.49;93197.22;5004287;28;20243;-73
2023/06/06 07:33:33;;;;;;;8.73;8.13;;;;;;;23.83;44.28;93187.16;5013173;28;20213;-71
2023/06/06 07:35:59;;;;;;;8.23;7.70;;;;;;;23.70;44.99;93195.22;5010783;28;20232;-72
2023/06/06 07:38:25;;;;;;;9.35;8.27;;;;;;;24.22;44.24;93196.84;5012793;28;20222;-73
2023/06/06 07:40:50;;;;;;;8.40;7.95;;;;;;;24.33;40.75;93198.63;5011571;28;20222;-73
2023/06/06 07:43:15;;;;;;;8.15;7.65;;;;;;;23.92;41.32;93201.09;5010876;28;20205;-73
2023/06/06 07:45:41;;;;;;;9.10;8.35;;;;;;;22.71;45.00;93199.09;5010271;28;20237;-72
2023/06/06 07:48:06;;;;;;;8.95;8.35;;;;;;;23.86;43.47;93197.13;5010476;28;20207;-71
2023/06/06 07:50:32;;;;;;;8.80;8.25;;;;;;;23.80;42.69;93196.59;5009961;28;20266;-71
2023/06/06 07:52:57;;;;;;;8.02;7.43;;;;;;;23.69;43.95;93204.34;5009599;28;20185;-71
2023/06/06 07:55:24;;;;;;;8.63;8.18;;;;;;;23.67;43.83;93200.50;5012698;28;20215;-72
2023/06/06 07:57:51;;;;;;;8.55;8.05;;;;;;;23.65;44.75;93192.84;5009644;28;21053;-70
2023/06/06 08:00:16;;;;;;;8.93;8.25;;;;;;;23.54;41.80;93189.16;5010316;28;20226;-79
2023/06/06 08:02:42;;;;;;;9.05;8.45;;;;;;;23.21;43.93;93203.84;5010223;28;20233;-76
2023/06/06 08:05:09;;;;;;;8.98;8.27;;;;;;;22.34;48.10;93192.31;5010103;28;20247;-76
2023/06/06 08:07:41;;;;;;;9.10;8.60;;;;;;;22.06;49.93;93191.47;5013987;28;20245;-76
2023/06/06 08:10:07;;;;;;;9.70;9.00;;;;;;;23.08;45.19;93197.06;5016813;28;20234;-77
2023/06/06 08:12:33;;;;;;;9.27;8.57;;;;;;;23.07;47.21;93174.97;5014019;28;20239;-76
2023/06/06 08:14:58;;;;;;;9.10;8.52;;;;;;;23.33;43.01;93195.84;5015060;28;20224;-76
2023/06/06 08:17:24;;;;;;;9.80;9.00;;;;;;;22.82;46.28;93172.78;4997809;28;20216;-76
2023/06/06 08:19:49;;;;;;;10.00;9.02;;;;;;;22.94;46.29;93205.44;5014173;28;21033;-76
2023/06/06 08:22:15;;;;;;;9.05;8.40;;;;;;;22.76;46.21;93182.09;5014577;28;20185;-76
2023/06/06 08:24:41;;;;;;;8.73;8.23;;;;;;;22.97;44.13;93204.78;5015518;28;20228;-76
2023/06/06 08:27:07;;;;;;;9.75;8.93;;;;;;;22.75;47.36;93192.00;5015948;28;20208;-76
2023/06/06 08:29:33;;;;;;;9.70;8.90;;;;;;;22.84;45.80;93189.19;5017707;28;20222;-76
2023/06/06 08:32:01;;;;;;;9.05;8.45;;;;;;;22.90;45.86;93204.56;5024791;28;20188;-76
2023/06/06 08:34:27;;;;;;;9.57;8.80;;;;;;;22.75;45.68;93185.88;5018377;28;20239;-76
2023/06/06 08:36:53;;;;;;;9.75;9.02;;;;;;;22.44;45.63;93186.53;5014644;28;20182;-76
2023/06/06 08:39:18;;;;;;;9.63;8.95;;;;;;;22.40;46.72;93171.56;5015806;28;20224;-76
2023/06/06 08:41:53;;;;;;;11.80;8.05;;;;;;;22.23;48.38;93188.56;5014368;28;20192;-75
2023/06/06 08:44:23;;;;;;;9.18;8.57;;;;;;;22.46;47.68;93178.97;5015579;28;20214;-76
2023/06/06 08:46:57;;;;;;;8.88;8.18;;;;;;;22.60;47.64;93184.72;5014006;28;20201;-77
2023/06/06 08:49:24;;;;;;;8.95;8.45;;;;;;;22.78;47.83;93172.69;5012639;28;20308;-75
2023/06/06 08:51:51;;;;;;;8.82;8.13;;;;;;;22.57;48.36;93169.41;5013000;28;20253;-71
2023/06/06 08:54:20;;;;;;;9.45;8.75;;;;;;;22.93;46.81;93182.59;4993354;28;20245;-69
2023/06/06 08:56:46;;;;;;;10.00;8.98;;;;;;;23.15;47.75;93179.38;5013833;28;20186;-68
2023/06/06 08:59:13;;;;;;;9.68;8.90;;;;;;;23.21;47.28;93179.88;5007523;28;20270;-68
2023/06/06 09:01:39;;;;;;;10.10;9.07;;;;;;;22.70;48.17;93154.19;5000992;28;20200;-71
2023/06/06 09:04:09;;;;;;;9.77;8.80;;;;;;;22.89;47.72;93173.75;5005823;28;20220;-71
2023/06/06 09:06:38;;;;;;;9.70;9.10;;;;;;;22.89;46.28;93171.09;5014299;28;20242;-71
2023/06/06 09:09:05;;;;;;;9.30;8.70;;;;;;;22.91;48.09;93165.41;5012729;28;20189;-73
2023/06/06 09:11:31;;;;;;;10.00;9.30;;;;;;;22.79;46.45;93152.13;5013887;28;20217;-71
2023/06/06 09:13:56;;;;;;;9.45;8.82;;;;;;;22.81;48.74;93166.69;5016328;28;20201;-73
2023/06/06 09:16:24;;;;;;;8.98;8.27;;;;;;;22.03;50.93;93160.22;5013172;28;20200;-74
2023/06/06 09:18:50;;;;;;;9.35;8.75;;;;;;;22.41;50.34;93165.13;4994892;28;20216;-71
2023/06/06 09:21:15;;;;;;;10.52;9.57;;;;;;;22.72;49.54;93155.41;5011521;28;20236;-79
2023/06/06 09:23:41;;;;;;;9.95;9.00;;;;;;;22.99;51.17;93159.91;4997999;28;20182;-74
2023/06/06 09:26:21;;;;;;;10.57;9.80;;;;;;;23.09;50.43;93166.63;5008285;28;20244;-75
2023/06/06 09:28:47;;;;;;;9.88;9.27;;;;;;;23.40;51.07;93158.69;5002299;28;20190;-74
2023/06/06 09:31:29;;;;;;;10.73;9.32;;;;;;;23.52;47.15;93163.94;5018238;28;20974;-77
2023/06/06 09:33:56;;;;;;;9.68;9.07;;;;;;;23.33;49.15;93161.97;5020136;28;20192;-74
2023/06/06 09:36:27;;;;;;;8.70;8.10;;;;;;;23.39;47.46;93160.59;5012593;28;20246;-77
2023/06/06 09:38:53;;;;;;;10.15;9.45;;;;;;;22.87;50.14;93156.53;5010914;28;20232;-83
2023/06/06 09:41:19;;;;;;;10.00;9.40;;;;;;;23.08;50.12;93155.19;5012499;28;20254;-77
2023/06/06 09:43:45;;;;;;;10.13;9.32;;;;;;;23.32;47.77;93152.44;5018024;28;20189;-75
2023/06/06 09:46:15;;;;;;;9.38;8.68;;;;;;;23.24;50.84;93150.66;5011795;28;20277;-77
2023/06/06 09:48:41;;;;;;;9.88;9.18;;;;;;;23.26;47.46;93140.47;5011982;28;20226;-75
2023/06/06 09:51:10;;;;;;;10.55;9.70;;;;;;;23.02;53.85;93153.91;5009912;28;20286;-78
2023/06/06 09:53:36;;;;;;;9.57;8.98;;;;;;;23.50;49.05;93148.28;5010812;28;20197;-79
2023/06/06 09:56:06;;;;;;;9.35;8.65;;;;;;;23.15;52.05;93142.06;5016336;28;21038;-79
2023/06/06 09:58:33;;;;;;;10.27;9.50;;;;;;;23.57;50.10;93140.47;4999187;28;20210;-74
2023/06/06 10:00:59;;;;;;;11.35;8.68;;;;;;;23.77;49.72;93124.53;5012346;28;20257;-77
2023/06/06 10:03:26;;;;;;;9.60;9.00;;;;;;;23.91;48.77;93146.19;4992109;28;20189;-72
2023/06/06 10:05:52;;;;;;;9.80;9.07;;;;;;;23.84;50.05;93132.69;5011380;28;20278;-81
2023/06/06 10:08:19;;;;;;;9.93;9.00;;;;;;;23.64;48.43;93119.28;5012054;28;20194;-80
2023/06/06 10:10:46;;;;;;;9.70;9.10;;;;;;;23.73;49.58;93130.56;5011931;28;20218;-79
2023/06/06 10:13:17;;;;;;;8.82;8.18;;;;;;;23.95;50.08;93121.16;5014065;28;20202;-78
2023/06/06 10:15:43;;;;;;;9.23;8.63;;;;;;;23.99;49.65;93097.22;5014445;28;20285;-80
2023/06/06 10:18:09;;;;;;;8.85;8.35;;;;;;;24.27;49.24;93127.16;5014838;28;20197;-78
2023/06/06 10:20:35;;;;;;;9.60;8.85;;;;;;;24.30;48.93;93123.78;5010947;28;20296;-78
2023/06/06 10:23:01;;;;;;;9.73;9.02;;;;;;;24.13;49.86;93124.19;5010383;28;20189;-78
2023/06/06 10:25:27;;;;;;;9.75;9.15;;;;;;;24.65;49.13;93121.84;5009472;28;20257;-79
2023/06/06 10:28:17;;;;;;;9.70;8.95;;;;;;;24.17;48.25;93117.06;5003645;28;20190;-81
2023/06/06 10:30:42;;;;;;;10.18;9.35;;;;;;;24.71;47.28;93115.13;5006782;28;20257;-74
2023/06/06 10:33:41;;;;;;;9.48;8.73;;;;;;;24.57;49.45;93112.16;4993228;28;20227;-76
2023/06/06 10:36:08;;;;;;;10.25;9.27;;;;;;;24.94;49.48;93116.72;5011033;28;20225;-78
2023/06/06 10:38:34;;;;;;;9.45;8.75;;;;;;;25.27;47.64;93108.09;5014609;28;20217;-80
2023/06/06 10:41:12;;;;;;;8.57;8.15;;;;;;;25.15;46.90;93110.97;5012124;28;20222;-74
2023/06/06 10:43:37;;;;;;;9.20;8.60;;;;;;;24.77;44.88;93100.34;5004469;28;20186;-77
2023/06/06 10:46:03;;;;;;;9.35;8.70;;;;;;;24.67;47.07;93098.28;5009953;28;20313;-72
2023/06/06 10:48:56;;;;;;;8.85;8.35;;;;;;;24.23;47.74;93088.97;5006098;28;20188;-72
2023/06/06 10:51:24;;;;;;;9.90;9.10;;;;;;;24.15;46.71;93093.41;5001702;28;20219;-73
2023/06/06 10:54:21;;;;;;;10.23;9.35;;;;;;;23.70;48.39;93083.25;4994566;28;20224;-74
2023/06/06 10:56:54;;;;;;;10.90;9.95;;;;;;;24.17;48.12;93085.81;5009708;28;20245;-69
2023/06/06 10:59:31;;;;;;;9.02;8.32;;;;;;;24.18;47.85;93082.03;5005079;28;20225;-73
2023/06/06 11:01:58;;;;;;;9.68;8.77;;;;;;;24.00;49.18;93080.09;5009812;28;20200;-73
2023/06/06 11:04:25;;;;;;;8.77;8.18;;;;;;;24.22;47.88;93074.84;5008798;28;20322;-70
2023/06/06 11:06:52;;;;;;;9.38;8.77;;;;;;;24.42;47.44;93078.31;5010439;28;20219;-69
2023/06/06 11:09:22;;;;;;;9.20;8.70;;;;;;;24.36;45.91;93066.38;5008694;28;20237;-71
2023/06/06 11:11:50;;;;;;;9.63;8.82;;;;;;;24.40;48.13;93064.53;5013343;28;20294;-70
2023/06/06 11:14:20;;;;;;;10.18;9.43;;;;;;;24.31;46.16;93062.06;5020306;28;20308;-71
2023/06/06 11:16:45;;;;;;;9.95;9.25;;;;;;;24.49;47.80;93059.72;5012093;28;20632;-70
2023/06/06 11:19:14;;;;;;;9.63;9.02;;;;;;;24.63;49.31;93060.00;5008653;28;20225;-70
2023/06/06 11:21:41;;;;;;;10.52;9.75;;;;;;;24.63;48.40;93049.31;5008305;28;20197;-78
2023/06/06 11:24:08;;;;;;;9.15;8.55;;;;;;;24.80;45.39;93059.56;5018212;28;20209;-77
2023/06/06 11:26:38;;;;;;;9.18;8.57;;;;;;;24.38;45.36;93053.41;5004194;28;20193;-69
2023/06/06 11:29:07;;;;;;;10.00;9.20;;;;;;;24.27;45.51;93052.44;5005477;28;20194;-69